Time;durP1;ratioP1;P1;durP2;ratioP2;P2;SDS_P1;SDS_P2;PMS_P1;PMS_P2;Temp;Humidity;BMP_temperature;BMP_pressure;BME280_temperature;BME280_humidity;BME280_pressure;Samples;Min_cycle;Max_cycle;Signal;HPM_P1;HPM_P2
2023/01/13 00:02:22;;;;;;;16.55;12.25;;;;;;;-5.10;79.64;146072.66;5086780;28;20059;-64
2023/01/13 00:04:47;;;;;;;16.73;11.90;;;;;;;-5.10;78.62;146072.66;5104963;28;20219;-66
2023/01/13 00:07:13;;;;;;;15.15;11.95;;;;;;;-5.01;79.25;146092.91;5086103;28;20019;-65
2023/01/13 00:09:38;;;;;;;15.23;11.57;;;;;;;-5.07;78.20;146079.00;5104836;28;20015;-66
2023/01/13 00:12:05;;;;;;;18.17;11.43;;;;;;;-5.21;78.83;146046.06;5103318;28;20043;-66
2023/01/13 00:14:34;;;;;;;14.55;11.27;;;;;;;-5.17;79.88;146054.94;5104793;28;20030;-65
2023/01/13 00:17:00;;;;;;;14.20;11.32;;;;;;;-5.06;78.76;146081.47;5103937;28;20790;-65
2023/01/13 00:19:25;;;;;;;15.35;11.15;;;;;;;-5.03;79.54;146090.38;5086726;28;20028;-66
2023/01/13 00:21:51;;;;;;;15.27;11.23;;;;;;;-4.97;79.32;146103.00;5104746;28;20047;-67
2023/01/13 00:24:16;;;;;;;15.27;11.88;;;;;;;-4.93;79.29;146113.13;5103456;28;20016;-68
2023/01/13 00:26:42;;;;;;;15.82;11.52;;;;;;;-5.05;79.05;146084.03;5103840;28;20024;-66
2023/01/13 00:29:08;;;;;;;18.83;11.32;;;;;;;-5.17;79.70;146053.63;5104594;28;20051;-66
2023/01/13 00:31:33;;;;;;;14.95;11.82;;;;;;;-5.01;79.90;146092.91;5104500;28;20287;-66
2023/01/13 00:34:00;;;;;;;14.88;11.48;;;;;;;-5.09;79.22;146073.91;5104341;28;20035;-67
2023/01/13 00:36:25;;;;;;;14.32;11.13;;;;;;;-5.10;79.79;146072.66;5103815;28;20126;-68
2023/01/13 00:38:51;;;;;;;14.70;10.82;;;;;;;-5.12;78.93;146066.31;5104219;28;20028;-66
2023/01/13 00:41:19;;;;;;;16.17;10.98;;;;;;;-5.13;79.01;146065.06;5104345;28;20320;-65
2023/01/13 00:43:46;;;;;;;15.88;10.93;;;;;;;-5.10;80.18;146071.34;5103594;28;20063;-66
2023/01/13 00:46:14;;;;;;;16.35;11.52;;;;;;;-5.09;79.11;146075.19;5103755;28;20320;-65
2023/01/13 00:48:40;;;;;;;14.80;10.68;;;;;;;-5.06;80.03;146082.78;5103968;28;20146;-66
2023/01/13 00:51:15;;;;;;;13.60;10.48;;;;;;;-5.26;79.03;146032.13;5104114;28;20036;-66
2023/01/13 00:53:47;;;;;;;14.63;11.13;;;;;;;-5.08;79.31;146076.44;5085913;28;20242;-65
2023/01/13 00:56:16;;;;;;;13.93;11.45;;;;;;;-4.89;79.06;146123.25;5103754;28;20045;-66
2023/01/13 00:58:44;;;;;;;15.65;11.20;;;;;;;-4.94;79.94;146111.88;5103986;28;20023;-65
2023/01/13 01:01:12;;;;;;;12.65;10.68;;;;;;;-4.86;79.85;146130.84;5085828;28;20028;-66
2023/01/13 01:03:38;;;;;;;14.38;10.80;;;;;;;-4.92;78.58;146116.91;5103897;28;20421;-65
2023/01/13 01:06:16;;;;;;;13.75;10.13;;;;;;;-5.28;79.00;146028.34;5103139;28;20040;-66
2023/01/13 01:08:42;;;;;;;14.15;10.43;;;;;;;-5.05;79.50;146085.28;5103129;28;20024;-68
2023/01/13 01:11:20;;;;;;;13.30;10.60;;;;;;;-5.07;79.19;146079.00;5087840;28;20320;-66
2023/01/13 01:13:46;;;;;;;16.63;10.95;;;;;;;-4.89;79.87;146124.56;5083281;28;20312;-66
2023/01/13 01:16:16;;;;;;;14.50;11.57;;;;;;;-4.85;79.93;146133.38;5099599;28;20063;-66
2023/01/13 01:18:45;;;;;;;18.60;10.25;;;;;;;-5.08;79.50;146077.69;5102933;28;20089;-66
2023/01/13 01:21:12;;;;;;;14.90;10.63;;;;;;;-4.90;80.24;146120.75;5103667;28;20057;-66
2023/01/13 01:23:39;;;;;;;14.75;10.07;;;;;;;-5.07;79.09;146080.22;5103420;28;20082;-67
2023/01/13 01:26:10;;;;;;;10.65;8.85;;;;;;;-5.18;79.92;146052.38;5102839;28;20051;-67
2023/01/13 01:28:35;;;;;;;11.20;9.90;;;;;;;-5.07;80.98;146080.22;5085337;28;20035;-67
2023/01/13 01:31:09;;;;;;;12.95;10.73;;;;;;;-5.12;79.52;146067.56;5103188;28;20040;-67
2023/01/13 01:33:35;;;;;;;14.48;10.48;;;;;;;-5.08;80.85;146077.69;5103430;28;20020;-66
2023/01/13 01:36:01;;;;;;;14.00;11.55;;;;;;;-4.83;79.04;146137.19;5102578;28;20069;-66
2023/01/13 01:38:27;;;;;;;15.57;11.38;;;;;;;-4.86;78.97;146130.84;5102991;28;20356;-67
2023/01/13 01:40:52;;;;;;;14.45;11.02;;;;;;;-4.97;79.65;146104.28;5085496;28;20048;-66
2023/01/13 01:46:07;;;;;;;13.90;10.77;;;;;;;-5.03;80.37;146090.38;5082438;28;20056;-66
2023/01/13 01:48:39;;;;;;;14.38;11.43;;;;;;;-5.05;80.67;146085.28;5082818;28;20032;-67
2023/01/13 01:51:11;;;;;;;16.73;11.73;;;;;;;-5.10;80.91;146071.34;5082826;28;20024;-67
2023/01/13 01:53:38;;;;;;;14.98;10.60;;;;;;;-5.02;80.90;146091.63;5083090;28;20028;-67
2023/01/13 01:56:04;;;;;;;14.35;10.80;;;;;;;-5.07;81.11;146079.00;5082369;28;20100;-67
2023/01/13 01:58:36;;;;;;;14.70;11.23;;;;;;;-4.89;79.55;146123.25;5082631;28;20039;-66
2023/01/13 02:01:02;;;;;;;14.00;10.57;;;;;;;-5.08;80.63;146076.44;5082678;28;20036;-66
2023/01/13 02:03:28;;;;;;;15.07;10.98;;;;;;;-5.01;80.94;146092.91;5082768;28;20035;-67
2023/01/13 02:05:54;;;;;;;15.50;11.88;;;;;;;-5.30;80.11;146023.31;5082368;28;20236;-67
2023/01/13 02:08:20;;;;;;;13.85;11.07;;;;;;;-5.05;79.96;146085.28;5082254;28;20060;-68
2023/01/13 02:10:52;;;;;;;13.98;11.13;;;;;;;-5.08;80.41;146077.69;5069007;28;20248;-67
2023/01/13 02:13:19;;;;;;;12.20;10.30;;;;;;;-5.28;81.29;146028.34;5061662;28;20209;-64
2023/01/13 02:15:57;;;;;;;15.65;11.40;;;;;;;-5.12;80.11;146066.31;5074141;28;20025;-65
2023/01/13 02:18:44;;;;;;;14.32;11.32;;;;;;;-5.14;80.00;146062.53;5082613;28;20438;-65
2023/01/13 02:21:38;;;;;;;17.17;12.50;;;;;;;-4.97;80.23;146103.00;5082158;28;20146;-64
2023/01/13 02:27:05;;;;;;;19.95;12.02;;;;;;;-4.76;79.45;146154.91;5083066;28;20043;-65
2023/01/13 02:32:59;;;;;;;14.38;12.27;;;;;;;-4.78;79.83;146151.09;5040209;28;20037;-66
2023/01/13 02:35:46;;;;;;;17.27;12.05;;;;;;;-4.90;79.67;146122.00;5082584;28;20044;-64
2023/01/13 02:38:15;;;;;;;16.00;12.52;;;;;;;-4.84;80.36;146135.94;5081973;28;20047;-66
2023/01/13 02:44:06;;;;;;;17.50;11.80;;;;;;;-4.82;79.74;146139.72;5072928;28;20346;-67
2023/01/13 02:46:47;;;;;;;17.23;12.13;;;;;;;-4.85;80.23;146134.63;5101084;28;20027;-66
2023/01/13 02:49:25;;;;;;;14.70;11.47;;;;;;;-5.04;81.48;146087.81;5106784;28;20239;-67
2023/01/13 02:51:54;;;;;;;13.60;11.07;;;;;;;-4.85;80.85;146134.63;5087912;28;20083;-68
2023/01/13 02:54:27;;;;;;;12.82;11.02;;;;;;;-4.82;79.69;146139.72;5106578;28;20020;-66
2023/01/13 02:56:55;;;;;;;14.85;11.27;;;;;;;-4.87;79.56;146129.59;5105539;28;20019;-66
2023/01/13 02:59:25;;;;;;;15.27;11.48;;;;;;;-4.94;80.86;146110.63;5106494;28;20066;-67
2023/01/13 03:01:54;;;;;;;13.57;10.75;;;;;;;-4.82;79.81;146139.72;5106170;28;20269;-68
2023/01/13 03:04:46;;;;;;;11.80;10.43;;;;;;;-4.83;79.31;146138.47;5105936;28;20020;-68
2023/01/13 03:07:34;;;;;;;19.60;12.82;;;;;;;-4.85;80.30;146133.38;5105534;28;20040;-68
2023/01/13 03:10:18;;;;;;;16.45;11.77;;;;;;;-4.69;78.76;146173.91;5105769;28;20027;-68
2023/01/13 03:12:58;;;;;;;16.27;10.20;;;;;;;-4.92;80.44;146115.66;5105800;28;20024;-66
2023/01/13 03:15:39;;;;;;;14.32;10.80;;;;;;;-4.83;80.04;146138.47;5105794;28;20046;-66
2023/01/13 03:18:43;;;;;;;12.97;10.70;;;;;;;-4.85;78.69;146134.63;5105277;28;20103;-68
2023/01/13 03:21:20;;;;;;;17.13;10.57;;;;;;;-5.02;79.17;146091.63;5104967;28;20127;-68
2023/01/13 03:23:50;;;;;;;10.63;9.27;;;;;;;-4.82;79.89;146140.97;5105532;28;20028;-68
2023/01/13 03:26:38;;;;;;;14.02;11.00;;;;;;;-4.97;80.23;146104.28;5105244;28;20096;-66
2023/01/13 03:29:04;;;;;;;12.80;10.02;;;;;;;-4.91;79.76;146119.47;5085357;28;20067;-67
2023/01/13 03:31:33;;;;;;;12.65;10.65;;;;;;;-4.95;78.92;146108.09;5103303;28;20036;-65
2023/01/13 03:34:18;;;;;;;16.20;10.95;;;;;;;-4.93;80.17;146113.13;5087410;28;20025;-66
2023/01/13 03:36:48;;;;;;;12.52;10.30;;;;;;;-5.18;79.37;146051.13;5104631;28;20027;-67
2023/01/13 03:39:26;;;;;;;12.45;10.00;;;;;;;-5.05;79.83;146085.28;5087586;28;20016;-67
2023/01/13 03:41:58;;;;;;;15.32;10.43;;;;;;;-4.86;78.73;146132.13;5105407;28;20323;-68
2023/01/13 03:44:34;;;;;;;12.73;10.32;;;;;;;-4.84;78.36;146135.94;5105106;28;20110;-68
2023/01/13 03:47:19;;;;;;;12.35;9.20;;;;;;;-4.87;78.83;146128.34;5104518;28;20035;-68
2023/01/13 03:49:59;;;;;;;11.55;9.68;;;;;;;-4.86;78.82;146130.84;5105558;28;20043;-68
2023/01/13 03:52:30;;;;;;;10.68;8.70;;;;;;;-5.05;78.60;146085.28;5087062;28;20079;-66
2023/01/13 03:55:18;;;;;;;16.65;10.05;;;;;;;-4.71;79.32;146168.81;5105106;28;20058;-67
2023/01/13 03:57:51;;;;;;;10.85;9.43;;;;;;;-4.76;78.43;146156.19;5086201;28;20032;-67
2023/01/13 04:00:21;;;;;;;14.52;9.57;;;;;;;-4.89;78.57;146123.25;5105203;28;20027;-70
2023/01/13 04:02:53;;;;;;;11.90;9.45;;;;;;;-4.78;79.35;146151.09;5104675;28;20023;-68
2023/01/13 04:05:19;;;;;;;12.65;9.38;;;;;;;-4.96;78.62;146106.84;5104199;28;20115;-68
2023/01/13 04:07:50;;;;;;;16.50;9.75;;;;;;;-4.82;78.52;146140.97;5104855;28;20032;-67
2023/01/13 04:10:22;;;;;;;16.58;12.50;;;;;;;-4.77;79.78;146153.66;5096621;28;20036;-67
2023/01/13 04:13:03;;;;;;;12.95;9.57;;;;;;;-4.86;77.76;146132.13;5095312;28;20388;-68
2023/01/13 04:15:34;;;;;;;10.65;9.13;;;;;;;-4.87;78.15;146128.34;5104848;28;20039;-68
2023/01/13 04:18:23;;;;;;;9.25;8.20;;;;;;;-4.93;78.82;146113.13;5104625;28;20055;-68
2023/01/13 04:20:51;;;;;;;11.50;8.18;;;;;;;-4.93;77.89;146114.41;5104180;28;20052;-68
2023/01/13 04:23:17;;;;;;;9.40;8.50;;;;;;;-4.86;78.88;146132.13;5103684;28;20034;-68
2023/01/13 04:25:44;;;;;;;9.68;7.85;;;;;;;-4.78;78.16;146149.84;5104445;28;20028;-66
2023/01/13 04:28:10;;;;;;;10.40;8.90;;;;;;;-4.65;77.39;146181.50;5104512;28;20095;-66
2023/01/13 04:30:37;;;;;;;11.25;9.05;;;;;;;-4.60;78.17;146195.44;5085845;28;20169;-65
2023/01/13 04:33:04;;;;;;;9.80;8.80;;;;;;;-4.73;78.45;146162.50;5103726;28;20455;-64
2023/01/13 04:35:30;;;;;;;8.65;7.60;;;;;;;-5.04;77.56;146087.81;5104336;28;20027;-65
2023/01/13 04:37:56;;;;;;;10.80;8.70;;;;;;;-4.87;78.19;146129.59;5104378;28;20034;-67
2023/01/13 04:40:22;;;;;;;10.00;8.38;;;;;;;-5.21;77.24;146044.81;5103573;28;20057;-66
2023/01/13 04:42:47;;;;;;;9.05;8.05;;;;;;;-4.79;77.43;146148.56;5103822;28;20092;-66
2023/01/13 04:45:13;;;;;;;8.75;7.85;;;;;;;-4.79;77.98;146148.56;5099625;28;20027;-66
2023/01/13 04:47:40;;;;;;;10.30;7.90;;;;;;;-4.88;77.85;146125.81;5089480;28;20111;-67
2023/01/13 04:50:07;;;;;;;11.95;8.75;;;;;;;-4.90;78.29;146122.00;5104208;28;20032;-67
2023/01/13 04:52:32;;;;;;;10.98;8.45;;;;;;;-4.78;78.33;146151.09;5102739;28;20220;-67
2023/01/13 04:54:58;;;;;;;10.88;8.15;;;;;;;-4.88;76.78;146125.81;5103595;28;20043;-67
2023/01/13 04:57:24;;;;;;;9.70;8.65;;;;;;;-4.58;77.94;146199.22;5103788;28;20032;-66
2023/01/13 04:59:50;;;;;;;13.00;8.15;;;;;;;-4.73;77.41;146163.78;5103544;28;20016;-68
2023/01/13 05:02:18;;;;;;;9.63;8.07;;;;;;;-4.91;77.78;146119.47;5102874;28;20334;-67
2023/01/13 05:04:47;;;;;;;8.93;8.00;;;;;;;-4.69;78.42;146173.91;5097566;28;20017;-67
2023/01/13 05:07:15;;;;;;;10.80;8.02;;;;;;;-4.71;78.06;146167.59;5072043;28;20189;-67
2023/01/13 05:09:40;;;;;;;14.35;8.50;;;;;;;-4.76;77.10;146154.91;5093130;28;20020;-67
2023/01/13 05:17:36;;;;;;;11.02;8.63;;;;;;;-4.59;77.06;146196.69;5103666;28;20031;-66
2023/01/13 05:20:03;;;;;;;12.10;8.10;;;;;;;-4.82;77.72;146139.72;5103385;28;20035;-66
2023/01/13 05:25:23;;;;;;;10.85;8.48;;;;;;;-4.70;77.03;146171.38;5103383;28;20035;-66
2023/01/13 05:27:50;;;;;;;8.70;7.80;;;;;;;-4.62;77.30;146189.09;5077431;28;20096;-66
2023/01/13 05:30:16;;;;;;;10.68;8.23;;;;;;;-4.54;77.49;146209.38;5095266;28;20036;-68
2023/01/13 05:32:42;;;;;;;9.68;7.55;;;;;;;-4.81;76.59;146143.53;5096326;28;20024;-68
2023/01/13 05:35:08;;;;;;;9.07;7.72;;;;;;;-4.81;78.13;146143.53;5083939;28;20028;-68
2023/01/13 05:37:34;;;;;;;10.60;8.07;;;;;;;-4.65;78.61;146182.75;5101774;28;20213;-67
2023/01/13 05:45:30;;;;;;;10.35;8.27;;;;;;;-4.68;76.79;146175.16;5103379;28;20346;-68
2023/01/13 05:47:56;;;;;;;11.13;7.97;;;;;;;-4.63;78.43;146187.84;5102287;28;20024;-66
2023/01/13 05:50:22;;;;;;;11.50;7.90;;;;;;;-4.62;77.84;146189.09;5103382;28;20035;-67
2023/01/13 05:52:48;;;;;;;9.65;8.60;;;;;;;-4.58;77.35;146199.22;5101769;28;20030;-67
2023/01/13 05:55:13;;;;;;;10.15;8.05;;;;;;;-4.79;78.78;146148.56;5096957;28;20331;-67
2023/01/13 05:57:40;;;;;;;12.00;7.40;;;;;;;-4.75;78.35;146158.69;5102935;28;20095;-66
2023/01/13 06:00:06;;;;;;;8.02;6.50;;;;;;;-4.76;77.25;146156.19;5102441;28;20028;-67
2023/01/13 06:02:31;;;;;;;8.98;6.60;;;;;;;-4.81;77.98;146142.28;5102300;28;20032;-67
2023/01/13 06:04:57;;;;;;;10.45;7.35;;;;;;;-4.63;78.10;146186.56;5102226;28;20330;-66
2023/01/13 06:07:23;;;;;;;8.00;6.10;;;;;;;-4.71;77.64;146167.59;5102069;28;20038;-67
2023/01/13 06:09:48;;;;;;;7.88;6.45;;;;;;;-4.81;76.80;146143.53;5102000;28;20027;-66
2023/01/13 06:12:14;;;;;;;7.80;6.30;;;;;;;-4.81;77.05;146143.53;5102189;28;20028;-68
2023/01/13 06:14:39;;;;;;;9.65;6.57;;;;;;;-4.66;78.29;146178.97;5102189;28;20464;-69
2023/01/13 06:17:09;;;;;;;10.75;6.40;;;;;;;-4.88;77.08;146125.81;5102328;28;20032;-68
2023/01/13 06:19:35;;;;;;;11.05;6.15;;;;;;;-4.76;77.68;146156.19;5102780;28;20032;-68
2023/01/13 06:22:06;;;;;;;10.23;6.35;;;;;;;-4.72;77.89;146166.34;5085632;28;20253;-67
2023/01/13 06:24:32;;;;;;;7.45;5.70;;;;;;;-4.71;77.80;146168.81;5103774;28;20031;-67
2023/01/13 06:26:58;;;;;;;8.50;6.00;;;;;;;-4.68;76.53;146176.41;5106672;28;20035;-66
2023/01/13 06:29:23;;;;;;;7.70;5.97;;;;;;;-4.64;77.08;146184.06;5101958;28;20040;-68
2023/01/13 06:31:49;;;;;;;10.70;6.57;;;;;;;-4.63;76.82;146186.56;5087182;28;20028;-67
2023/01/13 06:34:15;;;;;;;9.15;6.38;;;;;;;-4.63;78.15;146187.84;5100072;28;20032;-67
2023/01/13 06:36:47;;;;;;;8.88;6.85;;;;;;;-4.66;77.59;146178.97;5105157;28;20035;-67
2023/01/13 06:39:17;;;;;;;;;;;;;;;-4.46;77.18;146228.34;5105507;28;20201;-68
2023/01/13 06:44:28;;;;;;;10.45;6.40;;;;;;;-4.86;78.97;146130.84;5099421;28;20047;-67
2023/01/13 06:46:53;;;;;;;7.35;6.03;;;;;;;-4.93;78.40;146113.13;5088252;28;20188;-67
2023/01/13 06:49:19;;;;;;;7.30;5.50;;;;;;;-4.86;77.77;146132.13;5106506;28;20254;-67
2023/01/13 06:51:45;;;;;;;7.18;5.82;;;;;;;-4.74;78.70;146161.25;5105458;28;20228;-68
2023/01/13 06:54:11;;;;;;;10.35;6.30;;;;;;;-5.03;77.71;146090.38;5106283;28;20055;-66
2023/01/13 06:56:36;;;;;;;6.90;5.75;;;;;;;-4.94;79.22;146110.63;5102075;28;20252;-67
2023/01/13 06:59:02;;;;;;;7.90;5.70;;;;;;;-4.85;78.45;146134.63;5087528;28;20040;-67
2023/01/13 07:01:27;;;;;;;7.38;6.13;;;;;;;-4.93;79.24;146114.41;5106449;28;20366;-67
2023/01/13 07:03:53;;;;;;;6.80;5.63;;;;;;;-4.85;77.92;146133.38;5105485;28;20031;-67
2023/01/13 07:06:18;;;;;;;9.77;6.10;;;;;;;-4.78;78.71;146151.09;5105553;28;20023;-67
2023/01/13 07:08:44;;;;;;;12.55;6.43;;;;;;;-4.80;77.46;146144.78;5104947;28;20055;-68
2023/01/13 07:11:09;;;;;;;10.50;6.13;;;;;;;-4.66;77.69;146178.97;5071599;28;20027;-67
2023/01/13 07:16:19;;;;;;;7.38;5.63;;;;;;;-4.62;77.54;146189.09;5087581;28;20028;-65
2023/01/13 07:18:45;;;;;;;7.32;5.72;;;;;;;-4.65;78.11;146181.50;5099302;28;20030;-66
2023/01/13 07:21:12;;;;;;;9.32;5.60;;;;;;;-4.81;79.02;146142.28;5086564;28;20035;-66
2023/01/13 07:23:40;;;;;;;7.32;5.97;;;;;;;-4.78;78.59;146149.84;5104983;28;20091;-66
2023/01/13 07:26:08;;;;;;;8.13;5.75;;;;;;;-4.87;77.98;146128.34;5104634;28;20077;-67
2023/01/13 07:28:34;;;;;;;7.53;6.00;;;;;;;-4.80;78.62;146146.06;5104991;28;20312;-66
2023/01/13 07:31:00;;;;;;;9.25;6.43;;;;;;;-4.60;79.46;146194.13;5104816;28;20119;-68
2023/01/13 07:33:26;;;;;;;10.00;5.80;;;;;;;-4.68;77.24;146176.41;5100438;28;20084;-66
2023/01/13 07:35:57;;;;;;;7.60;5.40;;;;;;;-4.82;77.89;146139.72;5101915;28;20122;-66
2023/01/13 07:38:22;;;;;;;6.40;5.43;;;;;;;-4.90;77.50;146120.75;5105208;28;20034;-66
2023/01/13 07:40:48;;;;;;;7.82;5.75;;;;;;;-4.73;77.04;146163.78;5104035;28;20020;-67
2023/01/13 07:43:31;;;;;;;6.05;4.97;;;;;;;-4.74;78.17;146161.25;5105161;28;20040;-67
2023/01/13 07:46:05;;;;;;;8.50;5.38;;;;;;;-5.04;78.55;146087.81;5104591;28;20036;-67
2023/01/13 07:48:32;;;;;;;8.77;5.40;;;;;;;-4.86;78.67;146130.84;5104514;28;20024;-67
2023/01/13 07:51:03;;;;;;;7.85;5.97;;;;;;;-4.74;77.76;146160.00;5105001;28;20048;-66
2023/01/13 07:53:29;;;;;;;7.40;5.72;;;;;;;-4.73;78.21;146163.78;5105328;28;20024;-68
2023/01/13 07:55:56;;;;;;;8.80;5.35;;;;;;;-4.97;77.21;146103.00;5104122;28;20099;-67
2023/01/13 07:58:22;;;;;;;7.63;5.95;;;;;;;-4.71;78.50;146168.81;5104554;28;20032;-66
2023/01/13 08:00:47;;;;;;;8.55;5.72;;;;;;;-4.79;78.62;146148.56;5104465;28;20050;-67
2023/01/13 08:03:13;;;;;;;8.85;6.10;;;;;;;-4.61;78.47;146192.88;5103619;28;20028;-66
2023/01/13 08:05:38;;;;;;;8.55;5.78;;;;;;;-4.78;78.54;146151.09;5104650;28;20304;-66
2023/01/13 08:08:04;;;;;;;10.23;6.05;;;;;;;-4.74;78.25;146160.00;5104199;28;20218;-67
2023/01/13 08:10:30;;;;;;;7.53;5.53;;;;;;;-4.48;77.98;146223.28;5094038;28;20039;-65
2023/01/13 08:15:40;;;;;;;8.98;6.00;;;;;;;-4.56;76.85;146204.28;5104731;28;20062;-67
2023/01/13 08:18:05;;;;;;;7.80;6.15;;;;;;;-4.64;78.56;146185.31;5099525;28;20051;-67
2023/01/13 08:20:31;;;;;;;8.80;6.32;;;;;;;-4.79;78.61;146148.56;5092848;28;20052;-66
2023/01/13 08:22:57;;;;;;;7.70;6.13;;;;;;;-4.63;77.81;146186.56;5095552;28;20028;-67
2023/01/13 08:25:24;;;;;;;8.02;6.05;;;;;;;-4.56;77.76;146205.56;5097578;28;20085;-67
2023/01/13 08:27:49;;;;;;;9.18;5.85;;;;;;;-4.55;77.43;146206.81;5094984;28;20028;-67
2023/01/13 08:30:16;;;;;;;7.60;5.70;;;;;;;-4.46;76.52;146229.63;5078601;28;20105;-67
2023/01/13 08:32:46;;;;;;;8.82;5.90;;;;;;;-4.57;76.14;146201.78;5075070;28;20398;-67
2023/01/13 08:35:12;;;;;;;7.82;6.20;;;;;;;-4.42;77.48;146239.72;5093036;28;20347;-68
2023/01/13 08:37:38;;;;;;;8.15;5.57;;;;;;;-4.32;76.08;146262.53;5078714;28;20032;-67
2023/01/13 08:40:05;;;;;;;9.00;5.40;;;;;;;-4.41;76.49;146241.03;5081478;28;20047;-68
2023/01/13 08:42:31;;;;;;;6.05;5.18;;;;;;;-4.42;76.72;146239.72;5094761;28;20020;-66
2023/01/13 08:44:56;;;;;;;9.50;6.00;;;;;;;-4.55;76.71;146206.81;5093601;28;20027;-67
2023/01/13 08:47:23;;;;;;;9.00;5.68;;;;;;;-4.52;77.07;146214.41;5094261;28;20066;-67
2023/01/13 08:49:48;;;;;;;6.60;5.57;;;;;;;-4.51;77.24;146216.94;5093410;28;20016;-67
2023/01/13 08:52:15;;;;;;;14.07;5.70;;;;;;;-4.44;76.83;146234.69;5077070;28;20028;-67
2023/01/13 08:54:40;;;;;;;7.53;5.55;;;;;;;-4.42;77.39;146239.72;5095288;28;20088;-67
2023/01/13 08:57:06;;;;;;;7.20;5.70;;;;;;;-4.40;75.72;146243.56;5095280;28;20036;-66
2023/01/13 08:59:32;;;;;;;10.82;5.53;;;;;;;-4.41;77.11;146241.03;5094621;28;20096;-66
2023/01/13 09:01:58;;;;;;;8.35;6.18;;;;;;;-4.28;75.39;146272.69;5097434;28;20019;-67
2023/01/13 09:04:26;;;;;;;9.00;6.10;;;;;;;-4.40;76.93;146244.81;5095412;28;20173;-68
2023/01/13 09:06:53;;;;;;;6.25;5.57;;;;;;;-4.25;76.26;146281.53;5094933;28;20035;-68
2023/01/13 09:09:19;;;;;;;8.90;6.10;;;;;;;-4.28;76.35;146273.94;5094472;28;20032;-67
2023/01/13 09:14:34;;;;;;;10.45;5.78;;;;;;;-4.60;76.91;146195.44;5093518;28;20105;-68
2023/01/13 09:17:00;;;;;;;7.93;5.85;;;;;;;-4.34;76.88;146258.75;5098501;28;20024;-66
2023/01/13 09:19:27;;;;;;;8.02;5.57;;;;;;;-4.40;75.93;146244.81;5094418;28;20071;-69
2023/01/13 09:21:54;;;;;;;7.63;5.75;;;;;;;-4.29;75.77;146270.13;5094658;28;20312;-67
2023/01/13 09:24:20;;;;;;;10.60;7.13;;;;;;;-4.34;76.52;146260.00;5094184;28;20073;-68
2023/01/13 09:26:46;;;;;;;7.85;6.22;;;;;;;-4.41;76.23;146242.28;5094319;28;20324;-69
2023/01/13 09:29:12;;;;;;;7.60;5.78;;;;;;;-4.21;76.70;146291.66;5076100;28;20223;-68
2023/01/13 09:31:38;;;;;;;7.97;5.80;;;;;;;-4.21;77.18;146291.66;5095062;28;20035;-68
2023/01/13 09:36:50;;;;;;;8.60;6.28;;;;;;;-4.32;76.10;146262.53;5094767;28;20027;-68
2023/01/13 09:39:16;;;;;;;7.38;5.47;;;;;;;-4.39;76.90;146247.34;5093882;28;20028;-67
2023/01/13 09:44:44;;;;;;;6.97;5.78;;;;;;;-4.73;76.91;146163.78;5094399;28;20124;-67
2023/01/13 09:47:22;;;;;;;11.25;6.55;;;;;;;-4.40;77.91;146243.56;5097843;28;20043;-68
2023/01/13 09:49:48;;;;;;;9.10;6.00;;;;;;;-4.37;76.67;146252.41;5099109;28;20043;-68
2023/01/13 09:52:22;;;;;;;9.20;5.80;;;;;;;-4.34;77.56;146260.00;5075087;28;20032;-69
2023/01/13 09:54:58;;;;;;;9.48;5.75;;;;;;;-4.44;77.22;146233.44;5095783;28;20316;-68
2023/01/13 09:57:27;;;;;;;8.50;6.07;;;;;;;-4.30;76.83;146267.59;5091206;28;20028;-68
2023/01/13 09:59:53;;;;;;;14.55;6.15;;;;;;;-4.22;77.31;146289.16;5087459;28;20024;-67
2023/01/13 10:02:45;;;;;;;10.02;6.22;;;;;;;-4.19;76.49;146295.47;5097144;28;20032;-69
2023/01/13 10:05:18;;;;;;;10.40;6.55;;;;;;;-4.06;76.42;146328.41;5102437;28;20024;-70
2023/01/13 10:07:51;;;;;;;10.57;7.13;;;;;;;-4.05;76.83;146330.91;5093618;28;20048;-67
2023/01/13 10:10:39;;;;;;;8.38;6.10;;;;;;;-4.28;76.13;146272.69;5095783;28;20354;-68
2023/01/13 10:13:17;;;;;;;9.82;6.35;;;;;;;-4.55;76.71;146206.81;5063332;28;20115;-68
2023/01/13 10:16:25;;;;;;;7.25;5.85;;;;;;;-4.51;77.06;146216.94;5095997;28;20024;-68
2023/01/13 10:19:05;;;;;;;9.27;5.70;;;;;;;-4.34;77.93;146258.75;5095495;28;20099;-67
2023/01/13 10:21:54;;;;;;;10.35;7.30;;;;;;;-4.24;76.94;146284.06;5080089;28;20311;-68
2023/01/13 10:24:38;;;;;;;8.68;5.65;;;;;;;-4.43;77.33;146237.22;5094552;28;20090;-68
2023/01/13 10:27:11;;;;;;;8.05;5.97;;;;;;;-4.36;77.74;146253.66;5094125;28;20027;-70
2023/01/13 10:29:37;;;;;;;8.70;5.78;;;;;;;-4.30;77.32;146267.59;5095662;28;20216;-69
2023/01/13 10:32:03;;;;;;;8.07;5.43;;;;;;;-4.35;77.16;146257.50;5075341;28;20024;-70
2023/01/13 10:34:29;;;;;;;10.45;6.20;;;;;;;-4.38;77.96;146249.84;5091599;28;20016;-67
2023/01/13 10:37:05;;;;;;;10.10;5.57;;;;;;;-4.29;78.05;146270.13;5089656;28;20087;-71
2023/01/13 10:39:42;;;;;;;8.68;5.60;;;;;;;-4.17;78.29;146300.53;5093902;28;20027;-69
2023/01/13 10:42:13;;;;;;;10.32;5.97;;;;;;;-4.26;78.48;146277.72;5094563;28;20038;-71
2023/01/13 10:44:53;;;;;;;9.20;5.90;;;;;;;-4.26;78.23;146277.72;5081735;28;20051;-69
2023/01/13 10:47:30;;;;;;;8.60;5.47;;;;;;;-4.25;77.86;146280.28;5076834;28;20059;-70
2023/01/13 10:50:07;;;;;;;10.38;6.05;;;;;;;-4.26;77.42;146279.03;5069534;28;20091;-70
2023/01/13 10:52:40;;;;;;;7.93;6.15;;;;;;;-4.34;77.99;146258.75;5070237;28;20039;-70
2023/01/13 10:55:29;;;;;;;8.02;5.95;;;;;;;-4.47;78.00;146227.09;5077987;28;20051;-68
2023/01/13 10:57:55;;;;;;;8.77;6.28;;;;;;;-4.35;78.89;146257.50;5076303;28;20024;-67
2023/01/13 11:00:33;;;;;;;8.43;6.03;;;;;;;-4.47;78.67;146225.84;5080784;28;20044;-68
2023/01/13 11:03:19;;;;;;;6.75;5.43;;;;;;;-4.17;79.18;146301.78;5082089;28;20040;-70
2023/01/13 11:05:57;;;;;;;7.93;5.65;;;;;;;-4.20;77.85;146292.97;5082390;28;20036;-68
2023/01/13 11:08:28;;;;;;;11.15;6.15;;;;;;;-4.15;77.54;146305.59;5078521;28;20028;-70
2023/01/13 11:10:58;;;;;;;8.07;6.32;;;;;;;-4.02;77.58;146337.25;5085720;28;20087;-69
2023/01/13 11:14:31;;;;;;;9.85;6.78;;;;;;;-4.29;79.50;146270.13;5085825;28;20109;-68
2023/01/13 11:16:24;;;;;;;7.68;6.10;;;;;;;-4.14;78.21;146306.88;5083655;28;20092;-67
2023/01/13 11:19:10;;;;;;;8.52;6.18;;;;;;;-4.29;79.29;146271.44;5085322;28;20020;-68
2023/01/13 11:22:06;;;;;;;9.77;6.47;;;;;;;-4.19;79.05;146296.75;5084628;28;20089;-70
2023/01/13 11:24:50;;;;;;;9.23;5.78;;;;;;;-4.55;80.49;146206.81;5050269;28;20365;-67
2023/01/13 11:27:23;;;;;;;8.73;5.63;;;;;;;-4.69;80.67;146172.63;5085199;28;20124;-68
2023/01/13 11:29:57;;;;;;;9.98;6.63;;;;;;;-4.27;80.17;146275.22;5084831;28;20036;-68
2023/01/13 11:32:23;;;;;;;8.00;6.32;;;;;;;-4.30;78.80;146267.59;5084033;28;20078;-68
2023/01/13 11:34:55;;;;;;;8.48;6.22;;;;;;;-4.30;79.44;146268.88;5077333;28;20021;-68
2023/01/13 11:37:31;;;;;;;13.13;6.90;;;;;;;-4.53;80.12;146211.91;5084061;28;20029;-68
2023/01/13 11:40:06;;;;;;;8.68;6.70;;;;;;;-4.32;80.37;146263.78;5084947;28;20083;-68
2023/01/13 11:42:48;;;;;;;9.20;7.18;;;;;;;-4.28;80.28;146272.69;5080319;28;20054;-68
2023/01/13 11:45:36;;;;;;;9.82;7.05;;;;;;;-4.36;78.92;146253.66;5076314;28;20044;-69
2023/01/13 11:48:02;;;;;;;10.10;6.63;;;;;;;-4.35;78.86;146257.50;5085001;28;20020;-69
2023/01/13 11:50:36;;;;;;;9.90;6.60;;;;;;;-4.32;79.87;146262.53;5079049;28;20028;-69
2023/01/13 11:53:27;;;;;;;9.07;6.13;;;;;;;-4.10;78.24;146318.28;5080580;28;20104;-67
2023/01/13 11:56:04;;;;;;;9.65;7.25;;;;;;;-4.01;78.73;146339.81;5081735;28;20056;-69
2023/01/13 11:59:23;;;;;;;9.55;6.90;;;;;;;-4.02;79.91;146337.25;5083871;28;20040;-68
2023/01/13 12:02:20;;;;;;;8.50;6.55;;;;;;;-4.05;78.26;146330.91;5038452;28;20037;-69
2023/01/13 12:05:15;;;;;;;10.93;6.45;;;;;;;-4.01;78.42;146341.06;5078693;28;20047;-68
2023/01/13 12:07:57;;;;;;;9.75;6.55;;;;;;;-4.03;78.33;146336.00;5084689;28;20047;-68
2023/01/13 12:10:41;;;;;;;;;;;;;;;-3.98;79.53;146347.41;5084340;28;20043;-68
2023/01/13 12:13:32;;;;;;;11.32;6.68;;;;;;;-3.97;78.28;146348.69;5084579;28;19939;-68
2023/01/13 12:16:13;;;;;;;11.82;6.63;;;;;;;-4.12;79.74;146311.94;5084573;28;20044;-67
2023/01/13 12:19:06;;;;;;;11.05;7.38;;;;;;;-4.00;79.94;146343.59;5083603;28;20193;-68
2023/01/13 12:22:01;;;;;;;11.07;7.18;;;;;;;-4.10;79.49;146317.03;5083668;28;20071;-69